Time;durP1;ratioP1;P1;durP2;ratioP2;P2;SDS_P1;SDS_P2;PMS_P1;PMS_P2;Temp;Humidity;BMP_temperature;BMP_pressure;BME280_temperature;BME280_humidity;BME280_pressure;Samples;Min_cycle;Max_cycle;Signal;HPM_P1;HPM_P2
2022/10/18 00:00:28;;;;;;;;;17.25;13.00;;;;;18.57;96.21;102282.00;5009433;28;60375;-75
2022/10/18 00:02:53;;;;;;;;;19.25;18.25;;;;;18.62;96.68;102275.84;5009947;28;49628;-73
2022/10/18 00:05:19;;;;;;;;;20.00;19.00;;;;;18.68;96.75;102283.94;5007600;28;65185;-73
2022/10/18 00:07:44;;;;;;;;;20.75;20.75;;;;;18.51;97.09;102259.75;5009697;28;50065;-72
2022/10/18 00:10:09;;;;;;;;;13.50;13.50;;;;;18.70;96.73;102287.50;5008025;28;49764;-73
2022/10/18 00:12:36;;;;;;;;;20.25;18.25;;;;;18.68;96.63;102284.81;5009920;28;50035;-73
2022/10/18 00:15:03;;;;;;;;;18.50;17.25;;;;;18.69;96.93;102280.41;5009445;28;50515;-73
2022/10/18 00:17:29;;;;;;;;;19.50;19.50;;;;;18.64;97.01;102272.34;5024745;28;49633;-73
2022/10/18 00:19:54;;;;;;;;;21.00;19.75;;;;;18.70;96.84;102291.03;5009662;28;49932;-73
2022/10/18 00:22:20;;;;;;;;;20.75;19.00;;;;;18.70;97.02;102293.72;5011467;28;49695;-73
2022/10/18 00:24:45;;;;;;;;;16.00;16.00;;;;;18.61;97.11;102285.59;5012431;28;49836;-75
2022/10/18 00:27:11;;;;;;;;;20.75;18.75;;;;;18.73;96.79;102293.75;5012787;28;49784;-72
2022/10/18 00:29:36;;;;;;;;;26.25;21.75;;;;;18.70;96.88;102293.72;5012337;28;49847;-74
2022/10/18 00:32:02;;;;;;;;;21.25;21.25;;;;;18.67;96.88;102279.50;5013056;28;49706;-73
2022/10/18 00:34:27;;;;;;;;;17.75;17.75;;;;;18.71;96.76;102300.81;5012752;28;49945;-73
2022/10/18 00:36:53;;;;;;;;;18.75;16.75;;;;;18.62;96.98;102282.03;5012779;28;49820;-73
2022/10/18 00:39:20;;;;;;;;;20.25;16.75;;;;;18.72;96.88;102294.66;5012302;28;49795;-73
2022/10/18 00:41:46;;;;;;;;;23.25;21.75;;;;;18.71;96.67;102300.81;5011043;28;49745;-73
2022/10/18 00:44:12;;;;;;;;;20.50;19.50;;;;;18.71;96.92;102297.25;5005847;28;50718;-73
2022/10/18 00:46:45;;;;;;;;;23.00;22.00;;;;;18.66;97.13;102299.00;5012454;28;50027;-73
2022/10/18 00:49:14;;;;;;;;;19.00;16.00;;;;;18.71;97.22;102306.13;5012598;28;49696;-74
2022/10/18 00:51:59;;;;;;;;;19.00;17.50;;;;;18.70;97.18;102309.66;5012805;28;49727;-72
2022/10/18 00:54:28;;;;;;;;;21.50;21.00;;;;;18.71;97.01;102308.78;5012192;28;50839;-72
2022/10/18 00:56:54;;;;;;;;;19.00;18.75;;;;;18.71;97.00;102307.91;5012078;28;49879;-72
2022/10/18 00:59:20;;;;;;;;;22.25;21.25;;;;;18.55;97.24;102294.41;5012081;28;49738;-74
2022/10/18 01:01:46;;;;;;;;;19.75;18.75;;;;;18.60;97.50;102308.63;5012541;28;49882;-73
2022/10/18 01:04:14;;;;;;;;;20.25;18.25;;;;;18.60;97.61;102313.94;5011949;28;51073;-72
2022/10/18 01:06:58;;;;;;;;;24.50;20.00;;;;;18.61;98.15;102309.53;5012271;28;49749;-72
2022/10/18 01:09:46;;;;;;;;;19.75;19.50;;;;;18.30;98.10;102252.41;5012065;28;49585;-72
2022/10/18 01:12:26;;;;;;;;;17.25;17.25;;;;;18.62;97.94;102313.06;5012501;28;50055;-72
2022/10/18 01:15:09;;;;;;;;;21.00;20.50;;;;;18.66;98.03;102320.28;5007421;28;50883;-72
2022/10/18 01:17:40;;;;;;;;;20.25;18.75;;;;;18.68;97.94;102321.16;5011724;28;49760;-72
2022/10/18 01:20:11;;;;;;;;;23.75;19.00;;;;;18.66;98.03;102318.50;5011845;28;49733;-72
2022/10/18 01:22:44;;;;;;;;;17.50;17.00;;;;;18.59;98.10;102313.94;5012078;28;49638;-73
2022/10/18 01:25:25;;;;;;;;;20.25;18.00;;;;;18.66;98.20;102323.81;5011414;28;49811;-73
2022/10/18 01:28:02;;;;;;;;;19.00;18.00;;;;;18.66;97.88;102320.28;5005679;28;49824;-72
2022/10/18 01:30:48;;;;;;;;;23.25;21.75;;;;;18.66;98.00;102317.59;5011864;28;49749;-72
2022/10/18 01:33:37;;;;;;;;;22.25;20.50;;;;;18.60;98.07;102315.72;5011196;28;50133;-72
2022/10/18 01:36:12;;;;;;;;;20.50;19.25;;;;;18.59;98.14;102325.47;5011726;28;49443;-72
2022/10/18 01:38:40;;;;;;;;;23.00;22.00;;;;;18.63;98.39;102326.41;5006261;28;49809;-75
2022/10/18 01:41:08;;;;;;;;;22.50;19.50;;;;;18.48;98.34;102304.94;5011587;28;49753;-76
2022/10/18 01:43:35;;;;;;;;;23.75;22.25;;;;;18.58;98.20;102325.44;5011953;28;49838;-72
2022/10/18 01:46:03;;;;;;;;;26.25;23.50;;;;;18.54;98.36;102321.88;5011648;28;49901;-72
2022/10/18 01:48:29;;;;;;;;;27.00;24.50;;;;;18.50;98.76;102320.03;5011770;28;49626;-72
2022/10/18 01:50:55;;;;;;;;;24.50;24.50;;;;;18.45;98.54;102316.44;5011655;28;49824;-73
2022/10/18 01:53:27;;;;;;;;;24.25;23.00;;;;;18.25;98.96;102294.00;5011592;28;49830;-73
2022/10/18 01:56:28;;;;;;;;;23.50;22.25;;;;;18.25;99.26;102300.22;5011008;28;49883;-73
2022/10/18 01:59:11;;;;;;;;;20.25;20.25;;;;;18.23;99.23;102312.56;5011199;28;49663;-72
2022/10/18 02:02:14;;;;;;;;;21.00;21.00;;;;;18.19;99.58;102310.75;5005928;28;49805;-72
2022/10/18 02:05:07;;;;;;;;;21.50;21.00;;;;;18.14;99.24;102309.78;5011741;28;49970;-71
2022/10/18 02:07:38;;;;;;;;;27.25;24.50;;;;;18.13;99.40;102310.66;5010476;28;50782;-74
2022/10/18 02:10:23;;;;;;;;;22.25;21.50;;;;;18.06;99.41;102316.78;5011278;28;50608;-73
2022/10/18 02:12:49;;;;;;;;;24.50;24.50;;;;;18.06;99.84;102315.88;5011054;28;49838;-72
2022/10/18 02:15:22;;;;;;;;;25.00;24.25;;;;;18.08;99.88;102323.00;5011278;28;49716;-73
2022/10/18 02:17:49;;;;;;;;;26.00;25.00;;;;;17.98;99.99;102303.38;5010915;28;50657;-73
2022/10/18 02:20:20;;;;;;;;;26.75;24.75;;;;;17.88;99.81;102293.47;5011256;28;49782;-72
2022/10/18 02:22:49;;;;;;;;;27.50;26.25;;;;;17.91;99.95;102313.88;5011178;28;49925;-72
2022/10/18 02:25:22;;;;;;;;;24.75;22.25;;;;;17.84;99.96;102326.16;5011118;28;49772;-72
2022/10/18 02:27:48;;;;;;;;;24.25;21.75;;;;;17.82;99.68;102319.94;5010860;28;50412;-73
2022/10/18 02:30:14;;;;;;;;;29.00;27.00;;;;;17.75;99.78;102326.00;5010992;28;50094;-74
2022/10/18 02:32:47;;;;;;;;;29.00;23.50;;;;;17.68;99.72;102325.00;5011037;28;49875;-73
2022/10/18 02:35:20;;;;;;;;;24.50;22.50;;;;;17.58;100.00;102319.53;4990336;28;50179;-73
2022/10/18 02:37:51;;;;;;;;;25.75;24.50;;;;;17.55;99.96;102328.31;5005014;28;50625;-73
2022/10/18 02:40:17;;;;;;;;;19.75;19.50;;;;;17.50;100.00;102329.13;5010660;28;50220;-73
2022/10/18 02:42:48;;;;;;;;;22.00;20.75;;;;;17.32;100.00;102308.44;5009575;28;49825;-72
2022/10/18 02:45:15;;;;;;;;;19.75;19.25;;;;;17.41;100.00;102327.19;5009809;28;49614;-73
2022/10/18 02:47:41;;;;;;;;;22.75;21.75;;;;;17.36;100.00;102323.53;5010630;28;50370;-72
2022/10/18 02:50:07;;;;;;;;;24.00;24.00;;;;;17.23;100.00;102317.13;5010680;28;49732;-72
2022/10/18 02:52:33;;;;;;;;;17.25;17.25;;;;;17.29;100.00;102335.84;5010719;28;50366;-72
2022/10/18 02:54:58;;;;;;;;;24.00;23.00;;;;;17.15;100.00;102324.94;5010463;28;49619;-74
2022/10/18 02:57:23;;;;;;;;;21.50;20.00;;;;;17.26;100.00;102338.41;5009463;28;63862;-73
2022/10/18 02:59:48;;;;;;;;;26.25;24.25;;;;;17.13;100.00;102326.69;5010240;28;60418;-75
2022/10/18 03:02:14;;;;;;;;;28.25;25.75;;;;;17.16;100.00;102334.69;5010038;28;58467;-72
2022/10/18 03:04:39;;;;;;;;;27.00;25.25;;;;;17.19;100.00;102338.28;5010549;28;49743;-73
2022/10/18 03:07:04;;;;;;;;;27.25;27.00;;;;;17.24;100.00;102347.22;5010300;28;49646;-72
2022/10/18 03:09:30;;;;;;;;;22.50;22.50;;;;;17.23;100.00;102354.28;5009856;28;49799;-72
2022/10/18 03:11:55;;;;;;;;;25.50;23.50;;;;;17.25;100.00;102351.66;5010310;28;49728;-72
2022/10/18 03:14:20;;;;;;;;;27.50;24.25;;;;;17.06;100.00;102315.91;5010467;28;50000;-74
2022/10/18 03:16:46;;;;;;;;;25.50;24.25;;;;;17.10;100.00;102323.09;5009993;28;57295;-73
2022/10/18 03:19:11;;;;;;;;;32.00;23.25;;;;;17.23;100.00;102358.69;5010384;28;49747;-73
2022/10/18 03:21:36;;;;;;;;;26.25;23.00;;;;;17.06;100.00;102329.19;5010526;28;49630;-73
2022/10/18 03:24:02;;;;;;;;;22.50;21.75;;;;;17.07;100.00;102331.88;5010642;28;49723;-72
2022/10/18 03:26:27;;;;;;;;;27.25;26.00;;;;;17.29;100.00;102375.66;5009632;28;50607;-73
2022/10/18 03:28:52;;;;;;;;;26.00;23.25;;;;;17.35;100.00;102377.50;5009696;28;65146;-73
2022/10/18 03:31:18;;;;;;;;;33.75;29.50;;;;;17.24;100.00;102361.38;5010326;28;49675;-73
2022/10/18 03:33:43;;;;;;;;;27.50;23.25;;;;;17.40;100.00;102379.38;5010638;28;49978;-73
2022/10/18 03:36:09;;;;;;;;;20.25;20.25;;;;;17.10;100.00;102316.03;5010111;28;49779;-73
2022/10/18 03:38:34;;;;;;;;;21.00;21.00;;;;;17.36;100.00;102356.28;5010112;28;49735;-73
2022/10/18 03:40:59;;;;;;;;;25.25;24.00;;;;;17.38;100.00;102346.63;5009297;28;64543;-73
2022/10/18 03:43:25;;;;;;;;;23.00;20.50;;;;;17.60;100.00;102382.41;5009984;28;49694;-72
2022/10/18 03:45:51;;;;;;;;;32.00;27.00;;;;;17.63;100.00;102381.56;5009720;28;49629;-72
2022/10/18 03:48:16;;;;;;;;;27.00;23.25;;;;;17.65;100.00;102387.78;5009800;28;50221;-72
2022/10/18 03:50:42;;;;;;;;;25.50;20.50;;;;;17.53;100.00;102366.31;5010124;28;50368;-71
2022/10/18 03:53:08;;;;;;;;;25.75;25.75;;;;;17.44;100.00;102343.16;5010108;28;49622;-72
2022/10/18 03:55:33;;;;;;;;;27.25;25.25;;;;;17.56;100.00;102372.56;5009365;28;49824;-72
2022/10/18 03:57:58;;;;;;;;;25.00;22.50;;;;;17.70;100.00;102392.34;5012465;28;49856;-72
2022/10/18 04:00:24;;;;;;;;;24.75;23.75;;;;;17.72;100.00;102381.75;5010513;28;49774;-78
2022/10/18 04:02:49;;;;;;;;;28.50;26.00;;;;;17.66;100.00;102371.91;5013204;28;49943;-79
2022/10/18 04:05:15;;;;;;;;;25.25;23.25;;;;;17.63;100.00;102363.84;5013474;28;51747;-73
2022/10/18 04:07:40;;;;;;;;;20.50;19.00;;;;;17.77;100.00;102392.47;5012991;28;49762;-71
2022/10/18 04:10:06;;;;;;;;;25.50;25.50;;;;;17.70;100.00;102378.19;5013345;28;50336;-71
2022/10/18 04:12:32;;;;;;;;;19.00;19.00;;;;;17.73;100.00;102391.50;5012222;28;50232;-72
2022/10/18 04:14:57;;;;;;;;;25.50;22.50;;;;;17.70;100.00;102394.13;5012997;28;50487;-72
2022/10/18 04:17:22;;;;;;;;;17.25;17.25;;;;;17.61;100.00;102378.88;5013093;28;49977;-72
2022/10/18 04:19:48;;;;;;;;;30.00;27.50;;;;;17.68;100.00;102390.50;5012921;28;49716;-72
2022/10/18 04:22:14;;;;;;;;;27.00;25.00;;;;;17.65;100.00;102396.63;5013092;28;50051;-74
2022/10/18 04:24:39;;;;;;;;;28.25;23.25;;;;;17.53;100.00;102385.81;5012715;28;49681;-73
2022/10/18 04:27:06;;;;;;;;;27.00;23.75;;;;;17.49;100.00;102386.63;5012958;28;50041;-73
2022/10/18 04:29:31;;;;;;;;;26.75;24.75;;;;;17.35;100.00;102374.84;5005272;28;49789;-75
2022/10/18 04:31:56;;;;;;;;;30.50;28.75;;;;;17.40;100.00;102389.13;5002126;28;49961;-75
2022/10/18 04:34:22;;;;;;;;;25.75;25.25;;;;;17.22;100.00;102362.22;5007004;28;50005;-74
2022/10/18 04:36:47;;;;;;;;;26.75;25.50;;;;;17.34;100.00;102391.66;5010696;28;49912;-73
2022/10/18 04:39:13;;;;;;;;;25.25;25.25;;;;;17.23;100.00;102375.53;5010208;28;58895;-75
2022/10/18 04:41:38;;;;;;;;;30.00;26.50;;;;;17.25;100.00;102389.72;5010410;28;52986;-74
2022/10/18 04:44:04;;;;;;;;;35.25;32.00;;;;;17.22;100.00;102399.38;5012090;28;49756;-77
2022/10/18 04:46:29;;;;;;;;;29.50;29.50;;;;;17.21;100.00;102405.56;5012491;28;49680;-73
2022/10/18 04:48:55;;;;;;;;;36.75;33.50;;;;;17.16;100.00;102403.69;5011315;28;49769;-74
2022/10/18 04:51:20;;;;;;;;;30.00;27.00;;;;;17.15;100.00;102396.59;5011446;28;50092;-78
2022/10/18 04:53:46;;;;;;;;;26.75;24.75;;;;;16.98;100.00;102365.28;5012175;28;49772;-74
2022/10/18 04:56:11;;;;;;;;;31.50;28.75;;;;;17.09;100.00;102387.66;5012160;28;49707;-74
2022/10/18 04:58:36;;;;;;;;;26.00;24.50;;;;;17.11;100.00;102396.53;5014903;28;50448;-74
2022/10/18 05:01:05;;;;;;;;;26.75;25.00;;;;;17.07;100.00;102406.16;5012006;28;60730;-72
2022/10/18 05:03:31;;;;;;;;;30.25;28.00;;;;;16.73;100.00;102358.59;5012397;28;49721;-73
2022/10/18 05:05:56;;;;;;;;;32.25;28.50;;;;;16.78;100.00;102371.06;5014784;28;49819;-71
2022/10/18 05:08:22;;;;;;;;;24.00;21.75;;;;;16.91;100.00;102398.78;5014582;28;49644;-74
2022/10/18 05:10:47;;;;;;;;;26.50;22.50;;;;;16.96;100.00;102398.84;5012363;28;49788;-72
2022/10/18 05:13:12;;;;;;;;;19.50;16.00;;;;;16.96;100.00;102406.81;5012055;28;50839;-72
2022/10/18 05:15:38;;;;;;;;;22.50;22.50;;;;;17.04;100.00;102419.38;5012130;28;52382;-77
2022/10/18 05:18:03;;;;;;;;;24.50;22.25;;;;;17.00;100.00;102408.69;5012065;28;59880;-72
2022/10/18 05:20:28;;;;;;;;;20.75;19.25;;;;;17.04;100.00;102413.16;5011620;28;56717;-76
2022/10/18 05:22:57;;;;;;;;;26.25;24.50;;;;;16.91;100.00;102380.19;5012184;28;60390;-78
2022/10/18 05:25:23;;;;;;;;;27.00;27.00;;;;;17.13;100.00;102422.22;5027033;28;49949;-74
2022/10/18 05:27:48;;;;;;;;;21.00;20.50;;;;;17.00;100.00;102391.00;5010854;28;49758;-77
2022/10/18 05:30:13;;;;;;;;;26.75;26.25;;;;;17.07;100.00;102403.50;5012192;28;50239;-78
2022/10/18 05:32:39;;;;;;;;;31.50;29.00;;;;;17.22;100.00;102412.66;5011791;28;49797;-78
2022/10/18 05:35:04;;;;;;;;;23.75;22.50;;;;;17.24;100.00;102411.81;5011975;28;49848;-71
2022/10/18 05:37:30;;;;;;;;;23.25;21.25;;;;;17.16;100.00;102395.72;5015216;28;50087;-71
2022/10/18 05:39:55;;;;;;;;;26.00;21.25;;;;;17.29;100.00;102404.84;5006109;28;50053;-73
2022/10/18 05:42:20;;;;;;;;;27.25;25.75;;;;;17.30;100.00;102403.09;5011683;28;50837;-73
2022/10/18 06:32:52;;;;;;;;;23.75;22.00;;;;;16.66;100.00;102327.47;5346515;23;50032;-69
2022/10/18 06:35:17;;;;;;;;;24.75;18.50;;;;;16.97;100.00;102392.69;5015964;28;49778;-71
2022/10/18 06:37:42;;;;;;;;;22.00;20.25;;;;;16.94;100.00;102376.72;5010591;28;49731;-70
2022/10/18 06:40:08;;;;;;;;;21.75;19.00;;;;;16.86;100.00;102350.91;5013587;28;49763;-69
2022/10/18 06:42:34;;;;;;;;;23.50;20.00;;;;;16.92;100.00;102365.19;5012789;28;49830;-70
2022/10/18 06:44:59;;;;;;;;;22.00;18.75;;;;;17.47;100.00;102438.81;5019922;28;49785;-69
2022/10/18 06:47:25;;;;;;;;;18.25;14.00;;;;;17.62;100.00;102457.69;5017384;28;49962;-70
2022/10/18 06:49:50;;;;;;;;;22.75;19.25;;;;;17.66;100.00;102454.22;5013610;28;49930;-72
2022/10/18 06:52:16;;;;;;;;;18.00;15.75;;;;;17.11;100.00;102364.69;5010077;28;50058;-72
2022/10/18 06:54:42;;;;;;;;;13.25;13.25;;;;;16.69;100.00;102285.13;5012246;28;50024;-72
2022/10/18 06:57:08;;;;;;;;;16.50;16.00;;;;;17.58;100.00;102426.63;5010866;28;50866;-72
2022/10/18 06:59:34;;;;;;;;;22.25;20.50;;;;;17.42;100.00;102401.53;5010314;28;49824;-72
2022/10/18 07:01:59;;;;;;;;;25.25;23.00;;;;;16.65;100.00;102270.91;5010958;28;49957;-73
2022/10/18 07:04:28;;;;;;;;;15.50;15.50;;;;;17.84;100.00;102469.63;5013182;28;49913;-73
2022/10/18 07:06:53;;;;;;;;;19.25;16.50;;;;;17.66;100.00;102434.72;5010046;28;50883;-73
2022/10/18 07:09:19;;;;;;;;;15.25;14.75;;;;;17.30;100.00;102368.56;5010581;28;49808;-73
2022/10/18 07:11:44;;;;;;;;;15.50;15.25;;;;;17.31;100.00;102355.34;5010453;28;49963;-73
2022/10/18 07:14:09;;;;;;;;;18.50;18.25;;;;;16.73;100.00;102256.06;5010145;28;49915;-73
2022/10/18 07:16:35;;;;;;;;;20.50;18.50;;;;;16.70;100.00;102263.97;5011111;28;50384;-72
2022/10/18 07:19:00;;;;;;;;;17.25;16.50;;;;;17.94;100.00;102449.41;5009127;28;49940;-73
2022/10/18 07:21:26;;;;;;;;;17.50;17.25;;;;;17.45;100.00;102375.03;5010322;28;49844;-74
2022/10/18 07:23:52;;;;;;;;;16.50;16.50;;;;;17.80;99.89;102432.34;5010858;28;49846;-76
2022/10/18 07:26:27;;;;;;;;;16.25;16.00;;;;;18.28;99.07;102481.03;5010070;28;49711;-74
2022/10/18 07:29:05;;;;;;;;;21.00;17.25;;;;;17.89;97.92;102397.97;5015366;28;49822;-76
2022/10/18 07:31:30;;;;;;;;;18.75;15.50;;;;;18.42;97.88;102496.28;5018479;28;49891;-74
2022/10/18 07:33:56;;;;;;;;;16.75;16.50;;;;;18.00;97.16;102417.66;5012530;28;49726;-74
2022/10/18 07:36:23;;;;;;;;;18.75;16.25;;;;;17.43;96.92;102285.63;5013592;28;50563;-74
2022/10/18 07:38:48;;;;;;;;;19.25;15.75;;;;;18.33;95.99;102429.66;5013628;28;49869;-74
2022/10/18 07:41:14;;;;;;;;;16.00;16.00;;;;;18.24;95.53;102428.69;5016592;28;49771;-73
2022/10/18 07:43:49;;;;;;;;;19.00;16.00;;;;;18.22;94.04;102403.81;5015948;28;50008;-74
2022/10/18 07:46:16;;;;;;;;;14.50;14.25;;;;;18.25;94.21;102418.94;5013179;28;49776;-73
2022/10/18 07:48:41;;;;;;;;;12.00;10.50;;;;;18.74;93.89;102502.16;5019487;28;49666;-73
2022/10/18 07:51:08;;;;;;;;;16.25;16.00;;;;;18.33;94.85;102413.72;5026540;28;49783;-73
2022/10/18 07:53:34;;;;;;;;;16.75;15.75;;;;;18.39;93.63;102417.38;5010882;28;50051;-76
2022/10/18 07:56:02;;;;;;;;;15.75;15.25;;;;;18.53;93.36;102439.75;5008955;28;52423;-73
2022/10/18 07:58:27;;;;;;;;;17.25;17.25;;;;;18.56;93.07;102437.13;5015848;28;49803;-75
2022/10/18 08:00:53;;;;;;;;;17.00;17.00;;;;;18.77;92.46;102481.81;5013300;28;49751;-75
2022/10/18 08:03:18;;;;;;;;;17.50;15.75;;;;;18.52;92.75;102439.72;5013136;28;49913;-75
2022/10/18 08:05:50;;;;;;;;;19.50;17.25;;;;;19.08;92.91;102511.50;5013876;28;49821;-75
2022/10/18 08:08:16;;;;;;;;;18.50;16.00;;;;;18.08;91.94;102365.53;5013087;28;49734;-74
2022/10/18 08:10:41;;;;;;;;;18.25;15.50;;;;;17.87;92.15;102277.53;5014575;28;49743;-74
2022/10/18 08:13:06;;;;;;;;;18.50;17.50;;;;;18.45;91.30;102392.66;5015238;28;49878;-74
2022/10/18 08:15:32;;;;;;;;;15.75;15.75;;;;;18.97;92.23;102486.50;5015332;28;49862;-76
2022/10/18 08:17:57;;;;;;;;;15.25;13.00;;;;;17.83;89.18;102324.38;5016057;28;50086;-74
2022/10/18 08:20:22;;;;;;;;;11.50;11.50;;;;;18.54;90.04;102445.97;5013069;28;49666;-74
2022/10/18 08:22:51;;;;;;;;;14.25;12.00;;;;;17.85;90.08;102327.94;5013276;28;49880;-74
2022/10/18 08:25:16;;;;;;;;;17.50;13.75;;;;;18.55;90.33;102480.56;5012656;28;50618;-73
2022/10/18 08:27:42;;;;;;;;;13.00;12.00;;;;;18.55;90.20;102453.09;5012762;28;49855;-73
2022/10/18 08:30:08;;;;;;;;;11.50;11.50;;;;;18.19;90.64;102406.44;5011507;28;49739;-74
2022/10/18 08:32:34;;;;;;;;;13.50;13.50;;;;;19.08;90.07;102531.03;5014542;28;50070;-73
2022/10/18 08:34:59;;;;;;;;;12.25;12.25;;;;;19.12;89.76;102539.97;5011201;28;50090;-73
2022/10/18 08:37:25;;;;;;;;;18.00;17.00;;;;;19.28;89.01;102530.41;5012564;28;49946;-75
2022/10/18 08:39:50;;;;;;;;;14.50;12.50;;;;;19.38;88.60;102525.22;5013372;28;50030;-75
2022/10/18 08:42:32;;;;;;;;;11.00;10.25;;;;;19.47;87.56;102523.53;5013325;28;49778;-73
2022/10/18 08:44:58;;;;;;;;;10.50;9.00;;;;;18.92;87.24;102429.69;5006249;28;50686;-73
2022/10/18 08:47:34;;;;;;;;;11.75;9.75;;;;;19.52;87.19;102525.38;5012969;28;49800;-74
2022/10/18 08:50:22;;;;;;;;;14.25;11.00;;;;;19.59;85.47;102529.03;5013459;28;49952;-73
2022/10/18 08:53:01;;;;;;;;;15.50;14.25;;;;;19.32;84.88;102471.88;5013083;28;49872;-73
2022/10/18 08:55:44;;;;;;;;;15.75;13.25;;;;;19.55;85.10;102521.84;5014834;28;50801;-73
2022/10/18 08:58:25;;;;;;;;;12.75;11.00;;;;;18.99;85.44;102434.19;5006308;28;49907;-74
2022/10/18 09:01:06;;;;;;;;;18.00;13.25;;;;;19.54;84.70;102528.97;5009151;28;49820;-71
2022/10/18 09:03:40;;;;;;;;;12.50;10.00;;;;;19.59;84.77;102526.38;5012533;28;49928;-73
2022/10/18 09:06:27;;;;;;;;;13.50;13.25;;;;;19.16;84.83;102454.81;5012944;28;51155;-72
2022/10/18 09:09:29;;;;;;;;;14.00;14.00;;;;;19.76;85.02;102510.56;5012161;28;49854;-72
2022/10/18 09:12:04;;;;;;;;;16.50;12.75;;;;;19.89;83.88;102516.06;5006659;28;50621;-72
2022/10/18 09:14:39;;;;;;;;;17.25;13.50;;;;;19.93;84.32;102519.66;5011714;28;50043;-71
2022/10/18 09:17:10;;;;;;;;;16.75;15.50;;;;;19.98;84.90;102516.16;5011281;28;49967;-74
2022/10/18 09:19:56;;;;;;;;;15.75;14.00;;;;;19.65;83.31;102438.53;5006047;28;49637;-72
2022/10/18 09:22:50;;;;;;;;;10.00;10.00;;;;;20.08;82.32;102506.47;5012215;28;49791;-72
2022/10/18 09:25:20;;;;;;;;;11.75;11.75;;;;;20.13;82.15;102510.06;5005470;28;50112;-72
2022/10/18 09:28:13;;;;;;;;;10.50;10.25;;;;;20.06;81.10;102502.00;5010223;28;50757;-72
2022/10/18 09:30:42;;;;;;;;;12.00;10.00;;;;;20.18;80.46;102518.13;5008847;28;49707;-72
2022/10/18 09:33:19;;;;;;;;;12.25;11.25;;;;;20.20;81.76;102506.59;5009982;28;49712;-73
2022/10/18 09:35:54;;;;;;;;;11.50;10.75;;;;;20.33;80.41;102515.56;5011427;28;50182;-72
2022/10/18 09:38:25;;;;;;;;;13.50;12.25;;;;;20.64;79.54;102500.72;5009004;28;50714;-72
2022/10/18 09:40:56;;;;;;;;;12.50;12.50;;;;;19.58;78.45;102316.81;5010209;28;49827;-71
2022/10/18 09:43:46;;;;;;;;;16.75;16.75;;;;;20.17;78.58;102378.59;5012882;28;49631;-72
2022/10/18 09:46:14;;;;;;;;;15.25;15.25;;;;;20.65;77.04;102472.25;5010747;28;49684;-71
2022/10/18 09:48:50;;;;;;;;;12.50;12.25;;;;;20.73;77.54;102502.56;5008209;28;49735;-71
2022/10/18 09:51:21;;;;;;;;;15.00;14.25;;;;;19.59;77.37;102321.25;5007564;28;49857;-71
2022/10/18 09:53:55;;;;;;;;;14.75;13.75;;;;;20.63;78.49;102504.28;5011193;28;49879;-71
2022/10/18 09:56:29;;;;;;;;;9.75;9.25;;;;;20.63;77.10;102516.72;5010879;28;49732;-71
2022/10/18 09:58:54;;;;;;;;;12.25;10.00;;;;;20.13;77.05;102430.06;5012712;28;49815;-71
2022/10/18 10:01:23;;;;;;;;;11.00;10.50;;;;;20.49;77.44;102492.63;5004873;28;49805;-71
2022/10/18 10:03:50;;;;;;;;;11.50;11.00;;;;;20.55;76.97;102500.66;4995143;28;49909;-74
2022/10/18 10:06:24;;;;;;;;;12.50;12.50;;;;;20.61;76.58;102479.34;5010727;28;49670;-71
2022/10/18 10:09:03;;;;;;;;;11.25;11.25;;;;;20.74;75.63;102512.34;5009766;28;49752;-71
2022/10/18 10:11:30;;;;;;;;;13.75;13.00;;;;;20.72;76.88;102512.34;5001736;28;50076;-74
2022/10/18 10:14:12;;;;;;;;;11.75;10.00;;;;;20.75;76.03;102519.47;5005704;28;49693;-74
2022/10/18 10:16:46;;;;;;;;;9.75;9.75;;;;;20.77;77.50;102515.94;5007774;28;49840;-72
2022/10/18 10:19:22;;;;;;;;;8.00;7.50;;;;;20.53;75.27;102471.28;5011788;28;50805;-74
2022/10/18 10:21:52;;;;;;;;;10.50;8.75;;;;;20.49;75.62;102489.97;5011142;28;49792;-73
2022/10/18 10:24:24;;;;;;;;;8.75;8.75;;;;;20.28;73.78;102419.53;5014498;28;49946;-73
2022/10/18 10:26:56;;;;;;;;;11.75;10.25;;;;;20.99;74.65;102524.09;5008845;28;50336;-72
2022/10/18 10:29:46;;;;;;;;;11.50;8.50;;;;;21.08;74.40;102514.34;5010730;28;49876;-72
2022/10/18 10:32:15;;;;;;;;;8.25;8.25;;;;;21.13;73.20;102515.28;5010753;28;49605;-72
2022/10/18 10:34:41;;;;;;;;;8.50;8.50;;;;;20.58;73.00;102410.88;5009382;28;50097;-72
2022/10/18 10:37:23;;;;;;;;;15.00;8.50;;;;;21.25;72.12;102503.75;5010947;28;49922;-72
2022/10/18 10:40:09;;;;;;;;;7.50;7.50;;;;;21.40;73.71;102508.28;5010784;28;49912;-73
2022/10/18 10:42:47;;;;;;;;;7.75;7.75;;;;;21.27;72.35;102477.06;4993608;28;50052;-72
2022/10/18 10:45:13;;;;;;;;;7.25;6.00;;;;;20.91;72.06;102395.00;5010869;28;50005;-73
2022/10/18 10:47:39;;;;;;;;;6.25;6.25;;;;;20.63;71.57;102367.28;5011022;28;49879;-72
2022/10/18 10:50:11;;;;;;;;;6.50;5.50;;;;;20.95;71.44;102447.53;5010800;28;50666;-73
2022/10/18 10:52:39;;;;;;;;;5.00;5.00;;;;;20.38;72.58;102360.94;5010567;28;49778;-72
2022/10/18 10:55:17;;;;;;;;;8.00;8.00;;;;;20.14;72.85;102305.66;5010545;28;49862;-73
2022/10/18 10:57:48;;;;;;;;;10.75;7.25;;;;;21.30;72.23;102488.66;5010816;28;49568;-73
2022/10/18 11:00:32;;;;;;;;;8.75;8.75;;;;;21.46;72.62;102504.75;5010198;28;50337;-72
2022/10/18 11:03:25;;;;;;;;;10.75;7.00;;;;;20.24;71.51;102286.16;5010588;28;49769;-77
2022/10/18 11:05:54;;;;;;;;;10.00;10.00;;;;;21.03;70.49;102424.41;5009272;28;49891;-74
2022/10/18 11:08:27;;;;;;;;;7.25;7.25;;;;;21.47;72.40;102462.00;5008994;28;49726;-73
2022/10/18 11:11:13;;;;;;;;;8.25;7.00;;;;;21.68;70.85;102485.19;5010073;28;50799;-73
2022/10/18 11:14:00;;;;;;;;;10.00;8.25;;;;;21.50;71.15;102450.41;5009982;28;49969;-74
2022/10/18 11:16:34;;;;;;;;;7.00;6.50;;;;;21.02;71.58;102347.88;5010246;28;49969;-73
2022/10/18 11:19:08;;;;;;;;;10.75;10.75;;;;;21.33;70.70;102402.31;5010532;28;49681;-74
2022/10/18 11:21:34;;;;;;;;;10.75;7.50;;;;;20.70;70.68;102291.72;5010350;28;50616;-73
2022/10/18 11:24:01;;;;;;;;;5.25;4.50;;;;;20.71;70.44;102290.84;5010180;28;49953;-73
2022/10/18 11:26:55;;;;;;;;;9.50;8.00;;;;;21.99;70.82;102484.34;5010110;28;49732;-74
2022/10/18 11:29:48;;;;;;;;;7.75;7.75;;;;;22.02;70.35;102479.94;5005528;28;49808;-70
2022/10/18 11:32:38;;;;;;;;;9.50;8.75;;;;;22.03;69.95;102479.91;4997830;28;49994;-69
2022/10/18 11:35:21;;;;;;;;;6.50;6.50;;;;;22.25;70.35;102476.38;5009041;28;49671;-69
2022/10/18 11:37:46;;;;;;;;;6.50;6.00;;;;;22.37;70.35;102477.25;5004748;28;49972;-69
2022/10/18 11:40:27;;;;;;;;;7.00;5.75;;;;;22.35;68.16;102463.00;5013046;28;49904;-72
2022/10/18 11:43:01;;;;;;;;;6.25;5.75;;;;;22.40;68.50;102451.41;5005174;28;50028;-75
2022/10/18 11:45:41;;;;;;;;;7.50;5.75;;;;;22.60;67.54;102454.03;5021848;28;49591;-76
2022/10/18 11:48:36;;;;;;;;;7.50;6.00;;;;;21.96;67.60;102328.38;5007241;28;49695;-75
2022/10/18 11:51:33;;;;;;;;;7.00;6.00;;;;;22.81;67.79;102447.75;5026418;28;49339;-78
2022/10/18 11:54:19;;;;;;;;;4.25;4.25;;;;;22.51;66.41;102400.53;5015038;28;49938;-75
2022/10/18 11:56:57;;;;;;;;;3.25;2.75;;;;;22.66;66.61;102432.59;5011941;28;49885;-75
2022/10/18 11:59:33;;;;;;;;;9.50;6.00;;;;;21.68;66.51;102330.19;5008052;28;49990;-75
2022/10/18 12:02:05;;;;;;;;;6.25;5.75;;;;;22.32;66.82;102436.25;5017418;28;49822;-77
2022/10/18 12:04:35;;;;;;;;;3.75;3.00;;;;;22.12;68.43;102422.91;5022228;28;50806;-74
2022/10/18 12:07:04;;;;;;;;;2.00;2.00;;;;;21.56;66.45;102339.09;5014977;28;49841;-75
2022/10/18 12:09:35;;;;;;;;;2.00;2.00;;;;;22.10;67.30;102424.66;5004853;28;49877;-72
2022/10/18 12:12:08;;;;;;;;;2.75;2.75;;;;;21.13;66.85;102266.94;5011348;28;50153;-72